^^

Nearby METAR Reports

METAR (Meteorological Aerodrome Report) are Airport generated local weather condition reports for use, predominantly by pilots, these reports are also used as part of compliment of data sets required for Chatteris Weathers prediction software - WxSim.

EGUN - Mildenhall Raf, United Kingdom
Distance from station: ESE 19mi, 31km
Updated: 14/10/2019 20:56
Overcast
Overcast
 Wind from SE
Wind: SE 8 mph , 13 km/h
Temperature: 15°C
Dew Point: 15°C
Humidity: 100%
Barometer: 999.7 hPa
Clouds: Overcast
Visibility: 6 miles , 10 km
Cloud details: Overcast 244 m
2019/10/14 19:56 EGUN 141956Z AUTO 13007KT 9999 OVC008 15/15 A2952 RMK AO2 RAE51 SLP000 P0002 T01500150 $
EGSC - Cambridge, United Kingdom
Distance from station: SSE 20mi, 32km
Updated: 14/10/2019 17:50
NOT Current
Mostly cloudy
Mostly cloudy
 Wind from varies
Wind: varies 3 mph , 6 km/h
Temperature: 13°C
Dew Point: 12°C
Humidity: 94%
Barometer: 1002 hPa
Clouds: Mostly cloudy
Visibility: 6 miles , 9 km
Cloud details: Mostly cloudy 244 m
2019/10/14 16:50 EGSC 141650Z VRB03KT 9000 BKN008 13/12 Q1002
 
EGUL - Lakenheath Raf, United Kingdom
Distance from station: E 22mi, 36km
Updated: 14/10/2019 21:17
Haze, Mostly cloudy
Haze, Mostly cloudy
 Wind from SE
Wind: SE 8 mph , 13 km/h
Temperature: 15°C
Barometer: 999.3 hPa
Summary: Haze
Clouds: Mostly cloudy
Visibility: 6 miles , 9 km
Cloud details: Mostly cloudy 244 m
2019/10/14 20:17 EGUL 142017Z AUTO 13007KT 9000 HZ BKN008 15/ A2951 RMK AO2 RAE1955DZB1955E02 BKN V OVC SLP996 $
EGXT - Wittering Raf, United Kingdom
Distance from station: WNW 24mi, 38km
Updated: 14/10/2019 20:50
Mist, Overcast
Mist, Overcast
 Wind from N
Wind: N 9 mph , 15 km/h
Temperature: 10°C
Wind Chill: 8°C
Dew Point: 10°C
Humidity: 100%
Barometer: 1000 hPa
Summary: Mist
Clouds: Overcast
Visibility: 5 miles , 8 km
Cloud details: Overcast 61 m
2019/10/14 19:50 EGXT 141950Z AUTO 01008KT 8000 BR OVC002/// 10/10 Q1000 RERA
 
EGYH - Holbeach (aut), United Kingdom
Distance from station: N 27mi, 44km
Updated: 14/10/2019 14:50
NOT Current
Rain showers, Mostly cloudy
Rain showers, Mostly cloudy
 Wind from E
Wind: E 12 mph , 19 km/h
Temperature: 12°C
Dew Point: 11°C
Humidity: 94%
Barometer: 1006 hPa
Summary: Rain Showers
Clouds: Mostly cloudy
Visibility: 3 miles , 5 km
Cloud details: Mostly cloudy 1219 m
2019/10/14 13:50 EGYH 141350Z 08010KT 4500 SHRA BKN040 12/11 Q1006 RMK GRN
EGSS - Stansted Airport, United Kingdom
Distance from station: SE 11mi, 18km
Updated: 14/10/2019 21:20
Light rain, Drizzle, Overcast
Light rain, Drizzle, Overcast
 Wind from SSE
Wind: SSE 9 mph , 15 km/h
Temperature: 15°C
Dew Point: 15°C
Humidity: 100%
Barometer: 1000 hPa
Summary: Light rain, Drizzle
Clouds: Overcast
Visibility: 2 miles , 4 km
Cloud details: Overcast 91 m
2019/10/14 20:20 EGSS 142020Z AUTO 15008KT 130V200 3500 -RADZ OVC003 15/15 Q1000
 
EGGW - Luton Airport, United Kingdom
Distance from station: WSW 19mi, 31km
Updated: 14/10/2019 21:20
Mist, Thunderstorm
Mist, Thunderstorm
 Wind from SE
Wind: SE 8 mph , 13 km/h
Temperature: 15°C
Dew Point: 14°C
Humidity: 94%
Barometer: 999 hPa
Summary: Mist
Clouds: Thunderstorm
Visibility: 1 mile , 2 km
Cloud details: Overcast 61 m
2019/10/14 20:20 EGGW 142020Z AUTO 14007KT 2200 BR OVC002/// //////CB 15/14 Q0999
EGLL - London/Heathrow, United Kingdom
Distance from station: SSW 41mi, 66km
Updated: 14/10/2019 21:20
Light rain, Thunderstorm
Light rain, Thunderstorm
 Wind from SSE
Wind: SSE 10 mph , 17 km/h
Temperature: 16°C
Dew Point: 15°C
Humidity: 94%
Barometer: 999 hPa
Summary: Light rain
Clouds: Thunderstorm
Visibility: 6 miles , 9 km
Cloud details: Few Clouds 335 m
Partly cloudy 579 m
Mostly cloudy 792 m
2019/10/14 20:20 EGLL 142020Z AUTO 16009KT 120V230 9000 -RA FEW011/// SCT019/// BKN026/// //////CB 16/15 Q0999 RESHRA RERA TEMPO BKN009
 
EGKK - London/Gatwick A, United Kingdom
Distance from station: S 60mi, 97km
Updated: 14/10/2019 21:20
Mostly cloudy
Mostly cloudy
 Wind from S
Wind: S 9 mph , 15 km/h
Temperature: 15°C
Dew Point: 15°C
Humidity: 100%
Barometer: 1000 hPa
Clouds: Mostly cloudy
Visibility: 6 miles , 10 km
Cloud details: Mostly cloudy 274 m
2019/10/14 20:20 EGKK 142020Z 19008KT 160V240 9999 BKN009 15/15 Q1000 RERA
EGUY - Wyton Raf, United Kingdom
Distance from station: SW 11mi, 18km
Updated: 04/10/2015 09:50
NOT Current
Haze, Clear
Haze, Clear
 Wind from SSE
Wind: SSE 2 mph , 4 km/h
Temperature: 11°C
Dew Point: 7°C
Humidity: 77%
Barometer: 1014 hPa
Summary: Haze
Clouds: Clear
Visibility: 4 miles , 6 km
2015/10/04 08:50 EGUY 040850Z 15002KT 6000 HZ SKC 11/07 Q1014 WHT

Met Office METAR data link, decoding METAR data code.